Latest Weather Observations for Middle Percy Island

IDQ60801

Issued at 9:22 pm EST Sunday 16 June 2024 (issued every 10 minutes, with the page automatically refreshed every 10 minutes)

About weather observations | Map of weather stations | Latest weather observations for QLD | Other Formats
Station Details ID: 200001 Name: MIDDLE PERCY ISLAND Lat: -21.66 Lon: 150.27 Height: 208.7 m
Data from the previous 72 hours. | See also: Recent months at Middle Percy Island
Date/Time
EST
Temp
°C
App
Temp
°C
Dew
Point
°C
Rel
Hum
%
Delta-T
°C
Wind Press
QNH
hPa
Press
MSL
hPa
Rain since
9am
mm
Dir  Spd
km/h
Gust
km/h
Spd
kts
Gust
kts
16/09:00pm 17.2 16.2 11.0 67 3.4 E 7 9 4 5 1017.4 1016.7 0.0
16/08:30pm 18.0 16.0 8.6 54 4.9 SE 9 11 5 6 1017.3 1016.6 0.0
16/08:00pm 17.3 15.6 8.4 56 4.6 ESE 7 7 4 4 1016.9 1016.2 0.0
16/07:30pm 18.1 16.4 8.4 53 5.0 SE 7 7 4 4 1016.6 1015.9 0.0
16/07:00pm 18.0 16.4 8.6 54 4.9 S 7 9 4 5 1016.4 1015.7 0.0
16/06:30pm 18.1 16.3 8.1 52 5.2 SSW 7 9 4 5 1016.4 1015.7 0.0
16/06:00pm 18.1 17.1 8.9 55 4.8 SSW 4 9 2 5 1015.8 1015.1 0.0
16/05:30pm 18.1 17.1 8.9 55 4.8 S 4 4 2 2 1015.6 1014.9 0.0
16/05:00pm 18.8 17.4 8.7 52 5.3 SW 6 7 3 4 1015.1 1014.5 0.0
16/04:30pm 19.3 17.9 9.5 53 5.2 SSW 7 9 4 5 1014.8 1014.2 0.0
16/04:00pm 19.5 18.0 9.1 51 5.5 SW 7 13 4 7 1014.5 1013.9 0.0
16/03:30pm 19.5 17.5 10.2 55 5.0 SW 11 15 6 8 1014.7 1014.1 0.0
16/03:00pm 19.4 17.2 9.3 52 5.4 SW 11 17 6 9 1014.6 1014.0 0.0
16/02:30pm 19.6 17.6 10.0 54 5.2 SSW 11 15 6 8 1014.6 1014.0 0.0
16/02:00pm 19.6 16.6 9.2 51 5.5 SSW 15 19 8 10 1014.7 1014.1 0.0
16/01:30pm 19.6 16.4 8.6 49 5.8 SSW 15 22 8 12 1014.6 1014.0 0.0
16/01:00pm 19.4 15.6 9.0 51 5.5 S 19 24 10 13 1014.8 1014.2 0.0
16/12:30pm 19.4 15.6 9.9 54 5.1 S 20 24 11 13 1015.1 1014.5 0.0
16/12:00pm 19.1 15.3 9.9 55 4.9 S 20 30 11 16 1015.5 1014.8 0.0
16/11:30am 19.1 15.1 10.4 57 4.7 S 22 30 12 16 1016.0 1015.3 0.0
16/11:00am 19.4 15.3 10.1 55 5.0 S 22 30 12 16 1016.3 1015.6 0.0
16/10:30am 19.4 14.4 9.6 53 5.3 S 26 33 14 18 1016.5 1015.8 0.0
16/10:00am 19.3 13.8 9.2 52 5.4 S 28 37 15 20 1016.8 1016.1 0.0
16/09:30am 19.1 13.3 9.3 53 5.2 S 30 43 16 23 1017.0 1016.3 0.0
16/09:00am 19.0 12.1 7.4 47 5.9 S 33 43 18 23 1016.7 1016.0 0.2
16/08:30am 18.8 11.7 8.2 50 5.5 S 35 46 19 25 1016.3 1015.6 0.2
16/08:00am 18.6 11.2 8.3 51 5.4 S 37 46 20 25 1016.0 1015.3 0.2
16/07:30am 18.5 12.6 10.6 60 4.3 S 32 41 17 22 1015.6 1014.9 0.2
16/07:00am 18.5 15.7 17.2 92 0.8 SSE 28 37 15 20 1015.1 1014.5 0.2
16/06:30am 18.1 15.3 16.4 90 1.0 S 26 33 14 18 1014.9 1014.3 0.2
16/06:00am 18.1 15.7 16.4 90 1.0 S 24 32 13 17 1014.6 1014.0 0.2
16/05:30am 18.1 14.9 14.2 78 2.3 SSW 24 33 13 18 1014.2 1013.6 0.2
16/05:00am 18.5 16.6 16.8 90 1.0 S 22 30 12 16 1013.8 1013.2 0.0
16/04:30am 18.9 19.2 17.9 94 0.6 SSW 13 20 7 11 1013.6 1013.0 0.0
16/04:00am 18.9 19.6 17.9 94 0.6 W 11 17 6 9 1013.5 1012.9 0.0
16/03:30am 19.3 19.1 18.5 95 0.5 NW 17 24 9 13 1013.4 1012.7 0.0
16/03:00am 19.3 18.1 18.5 95 0.5 NW 22 28 12 15 1013.0 1012.3 0.0
16/02:30am 19.6 19.0 18.9 96 0.4 NW 20 30 11 16 1013.3 1012.6 0.0
16/02:00am 19.6 19.2 18.8 95 0.5 NNW 19 28 10 15 1012.9 1012.2 0.0
16/01:30am 19.4 18.6 18.4 94 0.6 NNW 20 26 11 14 1013.2 1012.5 0.0
16/01:00am 19.7 19.0 18.7 94 0.6 NNW 20 28 11 15 1013.5 1012.9 0.0
16/12:30am 19.8 19.2 18.8 94 0.6 NNW 20 28 11 15 1013.7 1013.1 0.0
16/12:00am 19.9 18.8 18.7 93 0.8 NNW 22 32 12 17 1013.9 1013.3 0.0
 
Date/Time
EST
Temp
°C
App
Temp
°C
Dew
Point
°C
Rel
Hum
%
Delta-T
°C
Wind Press
QNH
hPa
Press
MSL
hPa
Rain since
9am
mm
Dir  Spd
km/h
Gust
km/h
Spd
kts
Gust
kts
15/11:30pm 19.9 19.3 18.9 94 0.6 NNW 20 30 11 16 1014.0 1013.4 0.0
15/11:00pm 19.5 18.6 18.3 93 0.7 NNW 20 26 11 14 1014.0 1013.4 0.0
15/10:30pm 19.7 18.5 18.4 92 0.8 NNW 22 28 12 15 1013.9 1013.3 0.0
15/10:00pm 19.9 17.8 18.0 89 1.2 NNW 26 32 14 17 1014.1 1013.5 0.0
15/09:30pm 19.7 18.7 18.0 90 1.1 NNW 20 28 11 15 1014.5 1013.9 0.0
15/09:00pm 19.8 19.0 18.1 90 1.1 N 19 24 10 13 1014.7 1014.1 0.0
15/08:30pm 19.9 19.0 18.2 90 1.1 NNW 20 28 11 15 1014.5 1013.9 0.0
15/08:00pm 19.9 18.6 18.2 90 1.1 NNW 22 28 12 15 1014.2 1013.6 0.0
15/07:30pm 19.8 18.4 17.9 89 1.2 NNW 22 28 12 15 1013.9 1013.3 0.0
15/07:00pm 19.7 18.2 17.8 89 1.2 N 22 30 12 16 1013.7 1013.1 0.0
15/06:30pm 19.6 18.5 17.7 89 1.2 N 20 26 11 14 1013.5 1012.9 0.0
15/06:00pm 19.6 18.4 17.6 88 1.2 N 20 28 11 15 1013.2 1012.5 0.0
15/05:30pm 19.5 18.4 17.3 87 1.4 N 19 22 10 12 1013.2 1012.5 0.0
15/05:00pm 20.0 19.0 17.6 86 1.5 NNW 19 26 10 14 1012.9 1012.2 0.0
15/04:30pm 20.4 19.3 17.4 83 1.9 N 19 24 10 13 1012.6 1011.9 0.0
15/04:00pm 20.9 19.5 17.1 79 2.3 NNW 20 26 11 14 1012.6 1011.9 0.0
15/03:30pm 21.1 19.6 16.3 74 2.9 NNW 19 26 10 14 1012.3 1011.6 0.0
15/03:00pm 21.3 20.3 16.5 74 2.9 NNW 17 24 9 13 1012.7 1012.0 0.0
15/02:30pm 21.2 19.7 16.8 76 2.7 NNW 20 28 11 15 1012.6 1011.9 0.0
15/02:00pm 21.3 19.6 17.3 78 2.5 NW 22 30 12 16 1013.0 1012.3 0.0
15/01:30pm 21.5 20.7 17.9 80 2.3 NW 19 28 10 15 1013.4 1012.7 0.0
15/01:00pm 21.3 20.3 17.5 79 2.4 NNW 19 28 10 15 1013.8 1013.2 0.0
15/12:30pm 21.3 20.3 17.5 79 2.4 NW 19 28 10 15 1014.2 1013.6 0.0
15/12:00pm 21.6 21.2 18.0 80 2.3 NW 17 24 9 13 1014.9 1014.3 0.0
15/11:30am 21.6 21.3 18.2 81 2.1 NW 17 24 9 13 1015.6 1014.9 0.0
15/11:00am 21.3 21.2 17.9 81 2.1 NW 15 28 8 15 1016.1 1015.4 0.0
15/10:30am 21.8 21.2 17.6 77 2.6 NNW 17 26 9 14 1016.8 1016.1 0.0
15/10:00am 20.8 19.5 16.8 78 2.4 NNW 19 30 10 16 1016.8 1016.1 0.0
15/09:30am 20.5 19.6 16.9 80 2.2 NNW 17 28 9 15 1016.9 1016.2 0.0
15/09:00am 21.1 20.3 17.1 78 2.5 NNW 17 24 9 13 1017.0 1016.3 0.0
15/08:30am 20.4 18.4 16.4 78 2.4 NNW 22 32 12 17 1016.7 1016.0 0.0
15/08:00am 19.9 18.5 16.5 81 2.1 NNW 19 30 10 16 1016.3 1015.6 0.0
15/07:30am 19.4 17.9 16.2 82 1.9 NNW 19 24 10 13 1016.6 1015.9 0.0
15/07:00am 18.5 16.6 15.7 84 1.7 NNW 20 28 11 15 1016.1 1015.4 0.0
15/06:30am 18.1 16.1 15.4 84 1.6 NNW 20 24 11 13 1016.1 1015.4 0.0
15/06:00am 17.7 15.7 15.0 84 1.6 NNW 19 24 10 13 1016.2 1015.5 0.0
15/05:30am 17.9 16.0 15.2 84 1.6 NNW 19 24 10 13 1016.2 1015.5 0.0
15/05:00am 17.7 16.1 15.1 85 1.5 N 17 22 9 12 1015.9 1015.2 0.0
15/04:30am 17.4 16.2 15.0 86 1.4 N 15 17 8 9 1015.9 1015.2 0.0
15/04:00am 17.4 16.6 15.0 86 1.4 N 13 15 7 8 1015.9 1015.2 0.0
15/03:30am 17.3 17.1 14.8 85 1.5 N 9 11 5 6 1015.8 1015.1 0.0
15/03:00am 18.0 18.2 14.7 81 1.9 N 7 7 4 4 1016.1 1015.4 0.0
15/02:30am 17.8 17.9 14.5 81 1.9 N 7 9 4 5 1016.1 1015.4 0.0
15/02:00am 17.8 17.5 14.3 80 2.0 N 9 9 5 5 1016.1 1015.4 0.0
15/01:30am 18.4 18.6 14.3 77 2.4 NNW 6 7 3 4 1016.5 1015.8 0.0
15/01:00am 18.4 18.6 14.3 77 2.4 NNW 6 7 3 4 1016.8 1016.1 0.0
15/12:30am 18.3 18.6 14.4 78 2.3 N 6 7 3 4 1016.8 1016.1 0.0
15/12:00am 17.5 17.2 14.4 82 1.8 N 9 11 5 6 1016.6 1015.9 0.0
 
Date/Time
EST
Temp
°C
App
Temp
°C
Dew
Point
°C
Rel
Hum
%
Delta-T
°C
Wind Press
QNH
hPa
Press
MSL
hPa
Rain since
9am
mm
Dir  Spd
km/h
Gust
km/h
Spd
kts
Gust
kts
14/11:30pm 17.3 16.6 14.4 83 1.7 N 11 13 6 7 1016.7 1016.0 0.0
14/11:00pm 17.6 16.6 14.5 82 1.8 N 13 15 7 8 1017.0 1016.3 0.0
14/10:30pm 17.6 16.5 14.3 81 1.9 NNE 13 15 7 8 1016.9 1016.2 0.0
14/10:00pm 18.2 18.1 13.9 76 2.5 N 7 9 4 5 1017.4 1016.7 0.0
14/09:30pm 18.2 18.2 13.7 75 2.6 N 6 7 3 4 1017.5 1016.8 0.0
14/09:00pm 19.3 20.5 13.9 71 3.1 CALM 0 0 0 0 1018.0 1017.4 0.0
14/08:30pm 18.9 19.5 14.2 74 2.7 N 4 7 2 4 1017.7 1017.1 0.0
14/08:00pm 18.1 18.5 15.4 84 1.6 N 7 9 4 5 1017.1 1016.4 0.0
14/07:30pm 18.3 19.3 16.3 88 1.2 NE 6 7 3 4 1016.8 1016.1 0.0
14/07:00pm 18.5 19.3 16.3 87 1.3 E 7 11 4 6 1016.9 1016.2 0.0
14/06:30pm 18.6 19.0 16.4 87 1.3 E 9 13 5 7 1016.9 1016.2 0.0
14/06:00pm 18.8 19.5 16.2 85 1.6 E 7 9 4 5 1017.0 1016.3 0.0
14/05:30pm 19.1 20.0 16.0 82 1.9 ESE 6 7 3 4 1017.1 1016.4 0.0
14/05:00pm 19.9 20.9 16.3 80 2.2 SW 6 7 3 4 1017.1 1016.4 0.0
14/04:30pm 19.9 20.5 16.7 82 2.0 SW 9 13 5 7 1016.8 1016.1 0.0
14/04:00pm 20.2 20.3 17.4 84 1.7 SSW 13 19 7 10 1016.4 1015.7 0.0
14/03:30pm 20.3 20.7 17.3 83 1.9 SSW 11 17 6 9 1016.3 1015.6 0.0
14/03:00pm 19.8 19.7 17.0 84 1.7 SSW 13 17 7 9 1016.2 1015.5 0.0
14/02:30pm 19.8 20.9 17.2 85 1.6 SSW 7 11 4 6 1016.2 1015.5 0.0
14/02:00pm 19.9 20.7 17.3 85 1.6 SW 9 13 5 7 1016.3 1015.6 0.0
14/01:30pm 20.9 21.6 17.9 83 1.9 SSW 11 19 6 10 1016.6 1015.9 0.0
14/01:00pm 20.2 20.2 17.2 83 1.8 SSW 13 19 7 10 1017.2 1016.5 0.0
14/12:30pm 20.4 20.3 17.0 81 2.1 SSW 13 17 7 9 1017.7 1017.1 0.0
14/12:00pm 20.8 20.6 17.6 82 2.0 SSW 15 19 8 10 1018.1 1017.5 0.0
14/11:30am 20.1 19.1 16.7 81 2.1 S 17 22 9 12 1018.6 1018.0 0.0
14/11:00am 19.7 19.1 16.7 83 1.8 S 15 19 8 10 1019.1 1018.5 0.0
14/10:30am 20.4 20.6 16.8 80 2.2 SSW 11 17 6 9 1019.3 1018.7 0.0
14/10:00am 20.1 20.7 16.7 81 2.1 SSW 9 17 5 9 1019.3 1018.7 0.0
14/09:30am 21.0 21.3 15.1 69 3.5 SE 7 11 4 6 1019.3 1018.7 0.0
14/09:00am 21.3 20.6 14.2 64 4.2 SE 11 15 6 8 1019.2 1018.6 0.2
14/08:30am 20.8 20.9 14.5 67 3.7 ESE 7 13 4 7 1019.2 1018.6 0.2
14/08:00am 19.6 19.7 13.8 69 3.4 ESE 6 9 3 5 1019.2 1018.6 0.2
14/07:30am 18.9 18.1 12.9 68 3.4 E 9 17 5 9 1019.0 1018.4 0.2
14/07:00am 18.7 18.2 12.7 68 3.4 ESE 7 13 4 7 1018.8 1018.2 0.2
14/06:30am 18.3 17.4 12.5 69 3.3 E 9 13 5 7 1018.5 1017.9 0.2
14/06:00am 18.4 17.7 13.1 71 3.0 ESE 9 17 5 9 1018.2 1017.6 0.2
14/05:30am 18.6 17.4 12.8 69 3.3 ESE 11 22 6 12 1018.0 1017.4 0.2
14/05:00am 18.4 15.9 12.4 68 3.4 ESE 17 24 9 13 1017.9 1017.3 0.2
14/04:30am 18.1 16.2 13.0 72 2.9 SE 15 22 8 12 1017.6 1016.9 0.2
14/04:00am 18.4 16.1 13.1 71 3.0 SE 17 22 9 12 1017.5 1016.8 0.2
14/03:30am 17.7 15.7 12.6 72 2.9 SE 15 26 8 14 1017.5 1016.8 0.2
14/03:00am 18.1 15.4 12.8 71 3.0 SE 19 26 10 14 1017.7 1017.1 0.2
14/02:30am 17.6 14.6 12.7 73 2.8 SSE 20 30 11 16 1017.9 1017.3 0.2
14/02:00am 17.4 14.3 12.3 72 2.8 SSE 20 28 11 15 1018.0 1017.4 0.2
14/01:30am 17.5 14.6 12.4 72 2.9 SE 19 28 10 15 1018.1 1017.5 0.2
14/01:00am 17.7 14.1 11.7 68 3.3 SSE 22 32 12 17 1018.2 1017.6 0.2
14/12:30am 17.5 14.3 11.8 69 3.2 SSE 20 28 11 15 1018.2 1017.6 0.2
14/12:00am 17.6 13.6 11.9 69 3.2 SSE 24 33 13 18 1018.3 1017.7 0.2
 
Date/Time
EST
Temp
°C
App
Temp
°C
Dew
Point
°C
Rel
Hum
%
Delta-T
°C
Wind Press
QNH
hPa
Press
MSL
hPa
Rain since
9am
mm
Dir  Spd
km/h
Gust
km/h
Spd
kts
Gust
kts
13/11:30pm 17.5 14.0 12.2 71 3.0 SSE 22 32 12 17 1018.3 1017.7 0.2
13/11:00pm 17.6 13.3 12.1 70 3.1 SSE 26 33 14 18 1018.5 1017.9 0.2
13/10:30pm 17.6 14.1 12.1 70 3.1 SE 22 30 12 16 1018.7 1018.1 0.2
13/10:00pm 17.6 14.1 12.1 70 3.1 SSE 22 33 12 18 1018.7 1018.1 0.2
13/09:30pm 17.4 14.2 11.9 70 3.0 SE 20 28 11 15 1018.7 1018.1 0.2

Other formats

Comma delimited format used in spreadsheet applications
http://www.bom.gov.au/fwo/IDQ60801/IDQ60801.94372.axf

JavaScript Object Notation format (JSON) in row-major order
http://www.bom.gov.au/fwo/IDQ60801/IDQ60801.94372.json

Data quality

Most of these data are generated automatically and are frequently updated. Quality checks on data are not normally performed. It is possible for incorrect values to appear. Refer to information at About Latest Weather Observations and please check the disclaimer before using these data.